Time;durP1;ratioP1;P1;durP2;ratioP2;P2;SDS_P1;SDS_P2;PMS_P1;PMS_P2;Temp;Humidity;BMP_temperature;BMP_pressure;BME280_temperature;BME280_humidity;BME280_pressure;Samples;Min_cycle;Max_cycle;Signal;HPM_P1;HPM_P2
2022/01/09 00:01:49;;;;;;;2.08;1.10;;;2.70;98.00;;;;;;5034276;28;20263;-72
2022/01/09 00:04:15;;;;;;;5.63;3.00;;;2.80;98.00;;;;;;5030987;28;20088;-71
2022/01/09 00:06:41;;;;;;;2.25;1.20;;;2.80;98.00;;;;;;5029676;28;20057;-71
2022/01/09 00:09:06;;;;;;;2.08;1.40;;;2.80;98.00;;;;;;5030722;28;20022;-72
2022/01/09 00:11:32;;;;;;;2.30;1.20;;;2.70;98.00;;;;;;5022860;28;20129;-72
2022/01/09 00:13:57;;;;;;;1.10;0.98;;;2.80;98.00;;;;;;5023306;28;20040;-72
2022/01/09 00:16:24;;;;;;;1.70;1.10;;;2.90;98.00;;;;;;5031758;28;20037;-71
2022/01/09 00:18:50;;;;;;;1.48;1.00;;;2.90;98.00;;;;;;5023015;28;20109;-69
2022/01/09 00:21:17;;;;;;;1.63;1.00;;;2.90;98.00;;;;;;5030471;28;20045;-70
2022/01/09 00:23:45;;;;;;;1.33;1.08;;;2.90;98.00;;;;;;5013161;28;20326;-72
2022/01/09 00:26:12;;;;;;;2.00;1.00;;;2.90;98.00;;;;;;5019173;28;20112;-69
2022/01/09 00:28:38;;;;;;;1.35;1.10;;;3.00;98.00;;;;;;5029965;28;20057;-70
2022/01/09 00:31:03;;;;;;;1.73;1.20;;;3.00;98.00;;;;;;5026202;28;20450;-70
2022/01/09 00:33:29;;;;;;;2.38;1.20;;;3.00;98.00;;;;;;5022939;28;20025;-70
2022/01/09 00:35:55;;;;;;;1.70;1.20;;;3.00;98.00;;;;;;5031402;28;20036;-70
2022/01/09 00:38:20;;;;;;;2.92;1.02;;;2.90;98.00;;;;;;5029206;28;20030;-71
2022/01/09 00:40:46;;;;;;;1.92;1.20;;;3.00;98.00;;;;;;5017598;28;20030;-71
2022/01/09 00:43:12;;;;;;;1.83;1.23;;;2.90;98.00;;;;;;5032366;28;20052;-70
2022/01/09 00:45:40;;;;;;;1.65;1.10;;;2.90;98.00;;;;;;5016365;28;20341;-71
2022/01/09 00:48:07;;;;;;;1.60;1.08;;;3.00;98.00;;;;;;5019667;28;20100;-71
2022/01/09 00:50:36;;;;;;;1.63;1.10;;;3.00;98.00;;;;;;5031339;28;20061;-71
2022/01/09 00:53:03;;;;;;;1.95;1.15;;;3.00;98.00;;;;;;5032261;28;20037;-71
2022/01/09 00:55:30;;;;;;;2.00;1.23;;;2.90;98.00;;;;;;5030795;28;20025;-71
2022/01/09 00:57:56;;;;;;;1.27;1.08;;;2.80;98.00;;;;;;5031529;28;20053;-71
2022/01/09 01:00:23;;;;;;;1.40;1.10;;;2.80;98.00;;;;;;5029308;28;20096;-71
2022/01/09 01:02:48;;;;;;;2.60;1.10;;;2.80;98.00;;;;;;5009435;28;20144;-72
2022/01/09 01:05:14;;;;;;;2.10;1.10;;;2.70;98.00;;;;;;5031400;28;20363;-71
2022/01/09 01:07:40;;;;;;;1.20;1.10;;;2.70;98.00;;;;;;5034081;28;20108;-71
2022/01/09 01:10:06;;;;;;;1.40;1.08;;;2.60;98.00;;;;;;5030814;28;20346;-71
2022/01/09 01:12:33;;;;;;;1.23;1.00;;;2.60;98.00;;;;;;5031016;28;20022;-72
2022/01/09 01:14:59;;;;;;;1.50;1.10;;;2.70;98.00;;;;;;5034521;28;20111;-73
2022/01/09 01:17:33;;;;;;;1.10;0.90;;;2.70;98.00;;;;;;5033176;28;20036;-70
2022/01/09 01:20:00;;;;;;;1.20;1.00;;;2.70;98.00;;;;;;5028616;28;20303;-72
2022/01/09 01:22:27;;;;;;;1.10;0.95;;;2.80;98.00;;;;;;5010968;28;20128;-71
2022/01/09 01:24:53;;;;;;;1.02;0.90;;;2.90;98.00;;;;;;5032145;28;20014;-71
2022/01/09 01:27:19;;;;;;;1.17;0.90;;;2.90;98.00;;;;;;5033106;28;20136;-72
2022/01/09 01:29:44;;;;;;;1.40;1.00;;;2.90;98.00;;;;;;5016666;28;20060;-70
2022/01/09 01:32:10;;;;;;;1.00;0.80;;;2.90;98.00;;;;;;5028694;28;20060;-71
2022/01/09 01:34:36;;;;;;;1.20;0.95;;;3.00;98.00;;;;;;5031754;28;20484;-71
2022/01/09 01:37:04;;;;;;;1.15;0.90;;;3.00;98.00;;;;;;5033115;28;20037;-71
2022/01/09 01:39:30;;;;;;;0.80;0.70;;;3.00;98.00;;;;;;5030145;28;20116;-71
2022/01/09 01:41:56;;;;;;;0.93;0.82;;;3.20;98.00;;;;;;5033624;28;20018;-72
2022/01/09 01:44:22;;;;;;;0.80;0.80;;;3.10;98.00;;;;;;5029008;28;20036;-71
2022/01/09 01:46:48;;;;;;;1.20;0.90;;;3.20;98.00;;;;;;5030915;28;20025;-70
2022/01/09 01:49:14;;;;;;;1.67;1.00;;;3.20;98.00;;;;;;5023583;28;20044;-71
2022/01/09 01:51:42;;;;;;;1.30;0.90;;;3.20;98.00;;;;;;5014395;28;20052;-72
2022/01/09 01:54:15;;;;;;;0.85;0.82;;;3.20;98.00;;;;;;5028477;28;20057;-72
2022/01/09 01:56:40;;;;;;;1.00;0.90;;;3.30;98.00;;;;;;5028379;28;20113;-71
2022/01/09 01:59:06;;;;;;;0.90;0.80;;;3.40;98.00;;;;;;5019807;28;20116;-71
2022/01/09 02:01:36;;;;;;;1.02;0.93;;;3.30;98.00;;;;;;5034061;28;20038;-70
2022/01/09 02:04:03;;;;;;;1.00;0.90;;;3.30;98.00;;;;;;5034038;28;20032;-70
2022/01/09 02:06:28;;;;;;;0.90;0.80;;;3.30;98.00;;;;;;5031376;28;20048;-70
2022/01/09 02:08:54;;;;;;;1.02;0.90;;;3.30;98.00;;;;;;5031211;28;20033;-70
2022/01/09 02:11:20;;;;;;;1.67;0.80;;;3.30;98.00;;;;;;5031047;28;20029;-71
2022/01/09 02:13:46;;;;;;;1.38;0.90;;;3.20;98.00;;;;;;5029271;28;20041;-70
2022/01/09 02:16:17;;;;;;;0.88;0.80;;;3.20;98.00;;;;;;5025674;28;20040;-72
2022/01/09 02:18:47;;;;;;;0.82;0.80;;;3.30;98.00;;;;;;5029344;28;20384;-70
2022/01/09 02:21:14;;;;;;;1.63;0.80;;;3.40;98.00;;;;;;5029362;28;20041;-71
2022/01/09 02:23:44;;;;;;;1.30;0.82;;;3.40;98.00;;;;;;5029819;28;20034;-72
2022/01/09 02:26:10;;;;;;;0.80;0.80;;;3.40;98.00;;;;;;5027823;28;20025;-71
2022/01/09 02:28:36;;;;;;;0.80;0.80;;;3.30;98.00;;;;;;5016918;28;20025;-72
2022/01/09 02:31:01;;;;;;;1.02;0.90;;;3.20;98.00;;;;;;5030158;28;20017;-71
2022/01/09 02:33:32;;;;;;;1.10;0.82;;;3.20;98.00;;;;;;5031258;28;20025;-71
2022/01/09 02:36:07;;;;;;;0.70;0.70;;;3.20;98.00;;;;;;5031323;28;20109;-71
2022/01/09 02:38:40;;;;;;;1.20;0.75;;;3.30;98.00;;;;;;5030824;28;20037;-70
2022/01/09 02:41:12;;;;;;;1.10;0.90;;;3.50;98.00;;;;;;5013974;28;20018;-71
2022/01/09 02:43:38;;;;;;;0.82;0.80;;;3.50;98.00;;;;;;5029317;28;20032;-72
2022/01/09 02:46:14;;;;;;;1.00;0.90;;;3.60;98.00;;;;;;5027447;28;20022;-71
2022/01/09 02:48:40;;;;;;;0.80;0.80;;;3.60;98.00;;;;;;5011294;28;20029;-71
2022/01/09 02:51:13;;;;;;;0.93;0.80;;;3.70;98.00;;;;;;5022514;28;20327;-70
2022/01/09 02:53:44;;;;;;;0.88;0.80;;;3.70;98.00;;;;;;5023973;28;20025;-70
2022/01/09 02:56:10;;;;;;;1.75;0.90;;;3.80;98.00;;;;;;5028707;28;20029;-71
2022/01/09 02:58:37;;;;;;;1.42;0.80;;;3.90;98.00;;;;;;5023628;28;20327;-71
2022/01/09 03:01:07;;;;;;;0.90;0.80;;;4.10;98.00;;;;;;5020094;28;20026;-71
2022/01/09 03:03:34;;;;;;;0.80;0.70;;;4.20;98.00;;;;;;5024264;28;20052;-72
2022/01/09 03:06:00;;;;;;;0.93;0.80;;;4.30;98.00;;;;;;5022358;28;20301;-71
2022/01/09 03:08:26;;;;;;;0.70;0.70;;;4.30;98.00;;;;;;5027437;28;20032;-72
2022/01/09 03:10:52;;;;;;;0.70;0.70;;;4.30;98.00;;;;;;5031624;28;20041;-72
2022/01/09 03:13:18;;;;;;;0.70;0.70;;;4.30;98.00;;;;;;5020050;28;20112;-71
2022/01/09 03:15:44;;;;;;;0.98;0.77;;;4.30;98.00;;;;;;5035702;28;20105;-71
2022/01/09 03:18:12;;;;;;;1.10;0.75;;;4.40;98.00;;;;;;5032410;28;20029;-72
2022/01/09 03:20:38;;;;;;;0.85;0.80;;;4.50;98.00;;;;;;5034033;28;20041;-71
2022/01/09 03:23:04;;;;;;;0.88;0.80;;;4.50;98.00;;;;;;5027629;28;20032;-70
2022/01/09 03:25:30;;;;;;;1.13;0.80;;;4.60;97.90;;;;;;5034381;28;20029;-71
2022/01/09 03:27:57;;;;;;;0.85;0.75;;;4.70;97.60;;;;;;5035257;28;20104;-72
2022/01/09 03:30:23;;;;;;;1.05;0.70;;;4.60;97.70;;;;;;5035510;28;20021;-72
2022/01/09 03:32:50;;;;;;;0.82;0.80;;;4.60;97.80;;;;;;5035429;28;20151;-71
2022/01/09 03:35:19;;;;;;;0.93;0.80;;;4.60;97.90;;;;;;5033658;28;20028;-71
2022/01/09 03:37:47;;;;;;;0.70;0.70;;;4.50;98.00;;;;;;5031898;28;20013;-71
2022/01/09 03:40:19;;;;;;;1.15;0.80;;;4.50;98.00;;;;;;5031758;28;20021;-71
2022/01/09 03:42:46;;;;;;;1.13;0.88;;;4.50;98.00;;;;;;5030966;28;20394;-72
2022/01/09 03:45:12;;;;;;;0.80;0.80;;;4.50;98.00;;;;;;5035258;28;20026;-72
2022/01/09 03:47:39;;;;;;;0.82;0.80;;;4.40;98.00;;;;;;5032902;28;20025;-70
2022/01/09 03:50:07;;;;;;;0.80;0.80;;;4.20;98.00;;;;;;5035787;28;20029;-70
2022/01/09 03:52:36;;;;;;;0.82;0.80;;;4.20;98.00;;;;;;5032614;28;20318;-69
2022/01/09 03:55:02;;;;;;;1.23;0.80;;;4.10;98.00;;;;;;5027612;28;21354;-70
2022/01/09 03:57:28;;;;;;;1.48;0.90;;;4.10;98.00;;;;;;5032865;28;20080;-71
2022/01/09 03:59:54;;;;;;;1.30;0.85;;;4.10;98.00;;;;;;5035710;28;20135;-70
2022/01/09 04:02:22;;;;;;;0.85;0.77;;;4.10;98.00;;;;;;5030443;28;20439;-70
2022/01/09 04:04:48;;;;;;;0.90;0.80;;;4.00;98.00;;;;;;5014186;28;20306;-70
2022/01/09 04:07:15;;;;;;;0.80;0.80;;;3.90;98.00;;;;;;5031919;28;20105;-70
2022/01/09 04:09:43;;;;;;;1.17;0.80;;;3.90;98.00;;;;;;5029188;28;20191;-70
2022/01/09 04:12:17;;;;;;;1.25;0.80;;;3.90;98.00;;;;;;5031856;28;20027;-71
2022/01/09 04:14:48;;;;;;;1.10;1.00;;;3.80;98.00;;;;;;5034714;28;20163;-70
2022/01/09 04:17:24;;;;;;;0.80;0.80;;;3.80;98.00;;;;;;5029305;28;20495;-70
2022/01/09 04:19:50;;;;;;;0.70;0.70;;;3.70;98.00;;;;;;5034660;28;20342;-71
2022/01/09 04:22:16;;;;;;;1.40;1.00;;;3.70;98.00;;;;;;5028490;28;20038;-70
2022/01/09 04:24:42;;;;;;;1.35;0.90;;;3.60;98.00;;;;;;5017951;28;20028;-70
2022/01/09 04:27:07;;;;;;;0.98;0.88;;;3.40;98.00;;;;;;5033766;28;20023;-70
2022/01/09 04:29:33;;;;;;;1.73;0.90;;;3.20;98.00;;;;;;5032473;28;20562;-70
2022/01/09 04:31:59;;;;;;;2.13;0.90;;;3.00;98.00;;;;;;5029180;28;20419;-71
2022/01/09 04:34:24;;;;;;;1.70;0.90;;;2.80;98.00;;;;;;5029169;28;20411;-72
2022/01/09 04:36:50;;;;;;;1.83;0.98;;;2.70;98.00;;;;;;5031456;28;20122;-71
2022/01/09 04:39:16;;;;;;;2.03;1.00;;;2.50;98.00;;;;;;5013265;28;20143;-70
2022/01/09 04:41:42;;;;;;;1.30;0.98;;;2.30;98.00;;;;;;5027976;28;20022;-70
2022/01/09 04:44:08;;;;;;;1.70;1.05;;;2.20;97.20;;;;;;5029323;28;20022;-72
2022/01/09 04:46:42;;;;;;;2.17;1.13;;;2.20;96.50;;;;;;5030963;28;20079;-72
2022/01/09 04:49:08;;;;;;;1.35;1.00;;;2.10;97.00;;;;;;5027598;28;20030;-70
2022/01/09 04:51:34;;;;;;;2.53;1.00;;;2.10;96.10;;;;;;5031898;28;20473;-70
2022/01/09 04:53:59;;;;;;;1.98;1.10;;;2.00;96.40;;;;;;5028439;28;20080;-71
2022/01/09 04:56:25;;;;;;;1.00;0.90;;;2.00;96.20;;;;;;5025115;28;20030;-71
2022/01/09 04:58:51;;;;;;;1.90;1.08;;;1.90;96.90;;;;;;5009898;28;20060;-71
2022/01/09 05:01:16;;;;;;;2.67;1.40;;;1.80;95.50;;;;;;5026210;28;20028;-70
2022/01/09 05:03:42;;;;;;;1.02;0.90;;;1.70;95.00;;;;;;5032626;28;20044;-71
2022/01/09 05:06:08;;;;;;;1.67;1.00;;;1.50;94.60;;;;;;5031013;28;20049;-72
2022/01/09 05:08:33;;;;;;;1.90;1.05;;;1.30;94.00;;;;;;5034148;28;20057;-72
2022/01/09 05:10:59;;;;;;;1.17;1.00;;;1.20;93.40;;;;;;5032496;28;20385;-72
2022/01/09 05:13:25;;;;;;;1.20;0.98;;;1.00;92.20;;;;;;5031591;28;20029;-72
2022/01/09 05:15:50;;;;;;;2.05;1.27;;;0.80;91.20;;;;;;5031357;28;20029;-73
2022/01/09 05:18:16;;;;;;;1.13;1.00;;;0.80;90.10;;;;;;5032457;28;20385;-71
2022/01/09 05:20:43;;;;;;;3.17;1.90;;;0.70;89.60;;;;;;5027574;28;20042;-71
2022/01/09 05:23:09;;;;;;;1.48;1.10;;;0.60;88.90;;;;;;5029495;28;20025;-72
2022/01/09 05:25:36;;;;;;;2.78;1.02;;;0.60;88.50;;;;;;5031351;28;20033;-72
2022/01/09 05:28:01;;;;;;;1.13;0.93;;;0.50;88.10;;;;;;5033316;28;20320;-72
2022/01/09 05:30:27;;;;;;;4.72;1.00;;;0.50;87.50;;;;;;5032669;28;20026;-73
2022/01/09 05:32:53;;;;;;;3.60;1.10;;;0.50;87.00;;;;;;5031309;28;20449;-73
2022/01/09 05:35:18;;;;;;;2.15;1.00;;;0.40;87.40;;;;;;5033402;28;20112;-73
2022/01/09 05:37:44;;;;;;;1.73;1.10;;;0.40;86.10;;;;;;5013905;28;20022;-74
2022/01/09 05:40:10;;;;;;;2.80;1.20;;;0.40;86.10;;;;;;5028918;28;20025;-74
2022/01/09 05:42:36;;;;;;;1.20;1.00;;;0.40;85.90;;;;;;5030131;28;20036;-74
2022/01/09 05:45:03;;;;;;;3.08;1.30;;;0.50;85.70;;;;;;5033148;28;20406;-73
2022/01/09 05:47:28;;;;;;;1.90;1.13;;;0.50;85.80;;;;;;5024193;28;20037;-73
2022/01/09 05:49:54;;;;;;;1.10;1.00;;;0.50;85.90;;;;;;5024481;28;20087;-73
2022/01/09 05:52:20;;;;;;;1.10;1.00;;;0.50;85.80;;;;;;5030662;28;20104;-74
2022/01/09 05:54:45;;;;;;;2.05;1.20;;;0.50;85.80;;;;;;5026767;28;20029;-74
2022/01/09 05:57:11;;;;;;;3.25;1.20;;;0.50;85.80;;;;;;5029777;28;20037;-74
2022/01/09 05:59:36;;;;;;;5.70;1.20;;;0.50;85.80;;;;;;5028732;28;20318;-73
2022/01/09 06:02:02;;;;;;;1.65;1.10;;;0.50;85.70;;;;;;5028441;28;20030;-73
2022/01/09 06:04:28;;;;;;;1.58;1.20;;;0.50;85.90;;;;;;5027543;28;20114;-74
2022/01/09 06:06:54;;;;;;;2.00;1.20;;;0.50;85.80;;;;;;5032035;28;20296;-75
2022/01/09 06:09:21;;;;;;;1.55;1.15;;;0.50;86.00;;;;;;5030792;28;20029;-74
2022/01/09 06:11:46;;;;;;;1.95;1.10;;;0.50;85.70;;;;;;5029235;28;20040;-73
2022/01/09 06:14:12;;;;;;;2.25;1.20;;;0.40;85.60;;;;;;5028905;28;20037;-73
2022/01/09 06:16:38;;;;;;;3.58;1.30;;;0.40;85.40;;;;;;5013772;28;20080;-74
2022/01/09 06:19:04;;;;;;;3.88;1.45;;;0.40;85.40;;;;;;5028862;28;20034;-73
2022/01/09 06:21:29;;;;;;;2.05;1.20;;;0.40;85.40;;;;;;5028881;28;20052;-73
2022/01/09 06:23:57;;;;;;;5.40;1.50;;;0.40;85.30;;;;;;5028387;28;20030;-73
2022/01/09 06:26:23;;;;;;;3.75;1.55;;;0.40;85.20;;;;;;5028843;28;20296;-73
2022/01/09 06:28:49;;;;;;;5.07;1.75;;;0.40;85.20;;;;;;5027694;28;20037;-73
2022/01/09 06:31:14;;;;;;;3.40;2.28;;;0.40;85.20;;;;;;5012574;28;20033;-73
2022/01/09 06:33:40;;;;;;;2.92;1.80;;;0.40;85.10;;;;;;5031896;28;20030;-73
2022/01/09 06:36:05;;;;;;;7.88;3.38;;;0.40;85.00;;;;;;5029208;28;20104;-73
2022/01/09 06:38:31;;;;;;;15.98;1.88;;;0.30;85.10;;;;;;5014143;28;20061;-73
2022/01/09 06:40:57;;;;;;;12.60;1.77;;;0.30;84.90;;;;;;5028404;28;20022;-73
2022/01/09 06:43:22;;;;;;;5.00;1.73;;;0.40;84.90;;;;;;5026697;28;20040;-73
2022/01/09 06:45:48;;;;;;;3.45;1.40;;;0.40;85.00;;;;;;5014937;28;20059;-74
2022/01/09 06:48:14;;;;;;;3.83;1.55;;;0.40;84.80;;;;;;5001086;28;20034;-74
2022/01/09 06:50:39;;;;;;;3.35;1.65;;;0.40;84.70;;;;;;5024088;28;20029;-74
2022/01/09 06:53:05;;;;;;;6.30;3.28;;;0.40;84.70;;;;;;5025092;28;20038;-74
2022/01/09 06:55:31;;;;;;;3.67;2.00;;;0.40;84.80;;;;;;5031571;28;20043;-74
2022/01/09 06:57:56;;;;;;;3.50;2.13;;;0.40;84.80;;;;;;5030658;28;20132;-74
2022/01/09 07:00:22;;;;;;;5.00;2.45;;;0.50;84.70;;;;;;5031387;28;20112;-74
2022/01/09 07:02:48;;;;;;;7.22;2.88;;;0.50;84.50;;;;;;5027415;28;20022;-74
2022/01/09 07:05:14;;;;;;;4.53;2.20;;;0.50;84.50;;;;;;5028803;28;20018;-74
2022/01/09 07:07:40;;;;;;;4.85;2.22;;;0.50;84.60;;;;;;5033082;28;20029;-73
2022/01/09 07:10:07;;;;;;;3.03;1.80;;;0.60;84.70;;;;;;5013366;28;20048;-73
2022/01/09 07:12:32;;;;;;;3.72;2.13;;;0.60;84.60;;;;;;5012697;28;20025;-73
2022/01/09 07:14:58;;;;;;;5.53;2.00;;;0.60;84.80;;;;;;5029527;28;20032;-73
2022/01/09 07:17:24;;;;;;;3.25;1.67;;;0.60;85.00;;;;;;5026463;28;20394;-73
2022/01/09 07:19:49;;;;;;;2.70;1.50;;;0.60;85.30;;;;;;5028607;28;20045;-74
2022/01/09 07:22:15;;;;;;;6.05;2.92;;;0.60;85.50;;;;;;5022136;28;20071;-73
2022/01/09 07:24:40;;;;;;;5.05;2.53;;;0.60;85.30;;;;;;5028685;28;20033;-74
2022/01/09 07:27:06;;;;;;;5.90;4.20;;;0.60;85.30;;;;;;5026407;28;20021;-74
2022/01/09 07:29:35;;;;;;;4.50;2.33;;;0.60;85.60;;;;;;5026022;28;20034;-74
2022/01/09 07:32:01;;;;;;;4.55;2.80;;;0.60;85.50;;;;;;5022131;28;20039;-73
2022/01/09 07:34:27;;;;;;;4.97;2.55;;;0.60;85.50;;;;;;5027656;28;20028;-73
2022/01/09 07:36:52;;;;;;;4.95;2.72;;;0.60;85.70;;;;;;5028878;28;20341;-72
2022/01/09 07:39:18;;;;;;;5.88;3.60;;;0.60;85.60;;;;;;5030237;28;20303;-74
2022/01/09 07:41:47;;;;;;;6.43;4.10;;;0.60;85.30;;;;;;5028828;28;20048;-74
2022/01/09 07:44:16;;;;;;;6.43;3.85;;;0.60;85.60;;;;;;5029944;28;20025;-74
2022/01/09 07:46:44;;;;;;;5.40;3.25;;;0.60;85.60;;;;;;5024208;28;20083;-73
2022/01/09 07:49:10;;;;;;;7.65;4.63;;;0.60;85.30;;;;;;5027579;28;20041;-74
2022/01/09 07:51:36;;;;;;;16.52;7.78;;;0.60;85.20;;;;;;5011268;28;20021;-74
2022/01/09 07:54:01;;;;;;;9.38;6.28;;;0.60;85.50;;;;;;5020975;28;20040;-74
2022/01/09 07:56:27;;;;;;;6.28;3.70;;;0.60;85.50;;;;;;5013873;28;20112;-73
2022/01/09 07:58:52;;;;;;;8.00;4.57;;;0.60;85.60;;;;;;5031287;28;20163;-74
2022/01/09 08:01:18;;;;;;;6.93;4.28;;;0.60;85.80;;;;;;5033022;28;20029;-74
2022/01/09 08:03:44;;;;;;;8.15;5.47;;;0.60;85.70;;;;;;5026561;28;20029;-73
2022/01/09 08:06:09;;;;;;;8.27;4.40;;;0.60;86.00;;;;;;5033210;28;20145;-75
2022/01/09 08:08:35;;;;;;;7.20;4.10;;;0.60;85.70;;;;;;5036117;28;20095;-74
2022/01/09 08:11:01;;;;;;;7.80;4.88;;;0.60;85.70;;;;;;5033158;28;20021;-74
2022/01/09 08:13:26;;;;;;;6.80;3.85;;;0.60;86.00;;;;;;5035657;28;20033;-75
2022/01/09 08:15:52;;;;;;;7.03;3.10;;;0.60;85.80;;;;;;5032468;28;20112;-74
2022/01/09 08:18:18;;;;;;;7.07;3.67;;;0.60;85.70;;;;;;5010314;28;20037;-74
2022/01/09 08:20:43;;;;;;;4.22;2.13;;;0.60;85.60;;;;;;5033641;28;20072;-75
2022/01/09 08:23:10;;;;;;;6.35;3.90;;;0.60;85.80;;;;;;5028547;28;20032;-73
2022/01/09 08:25:35;;;;;;;10.43;4.97;;;0.50;85.90;;;;;;5014961;28;20021;-74
2022/01/09 08:28:01;;;;;;;5.50;3.40;;;0.60;85.90;;;;;;5032595;28;20030;-73
2022/01/09 08:30:27;;;;;;;6.95;2.67;;;0.60;85.60;;;;;;5034693;28;20052;-74
2022/01/09 08:32:53;;;;;;;7.55;3.13;;;0.60;85.50;;;;;;5034479;28;20057;-73
2022/01/09 08:35:20;;;;;;;8.75;4.30;;;0.70;85.60;;;;;;5035183;28;20017;-74
2022/01/09 08:37:46;;;;;;;6.72;3.47;;;0.70;85.80;;;;;;5034387;28;20053;-74
2022/01/09 08:40:17;;;;;;;7.30;2.58;;;0.70;85.70;;;;;;5033951;28;20357;-74
2022/01/09 08:42:43;;;;;;;6.82;2.60;;;0.70;86.70;;;;;;5033509;28;20031;-74
2022/01/09 08:45:09;;;;;;;10.02;3.22;;;0.70;87.80;;;;;;5034236;28;20021;-73
2022/01/09 08:47:37;;;;;;;10.18;3.03;;;0.70;88.90;;;;;;5032022;28;20083;-73
2022/01/09 08:50:05;;;;;;;8.55;2.25;;;0.80;91.00;;;;;;5032712;28;20026;-72
2022/01/09 08:52:31;;;;;;;7.38;2.42;;;0.80;92.40;;;;;;5031255;28;20358;-73
2022/01/09 08:54:56;;;;;;;5.55;2.50;;;0.80;92.00;;;;;;5030347;28;20033;-72
2022/01/09 08:57:25;;;;;;;6.05;2.33;;;0.70;92.40;;;;;;5016652;28;20089;-73
2022/01/09 08:59:50;;;;;;;12.10;3.83;;;0.80;92.90;;;;;;5034918;28;20089;-72
2022/01/09 09:02:16;;;;;;;9.15;2.63;;;0.80;92.80;;;;;;5030583;28;20028;-73
2022/01/09 09:04:42;;;;;;;13.00;3.53;;;0.80;93.00;;;;;;5032963;28;20061;-72
2022/01/09 09:07:08;;;;;;;8.38;2.63;;;0.80;94.50;;;;;;5032552;28;20025;-73
2022/01/09 09:09:33;;;;;;;12.25;4.22;;;0.90;95.10;;;;;;5030708;28;20071;-72
2022/01/09 09:11:59;;;;;;;10.70;3.28;;;0.90;94.50;;;;;;5035383;28;20087;-73
2022/01/09 09:14:24;;;;;;;10.57;3.08;;;0.90;94.30;;;;;;5030962;28;20104;-72
2022/01/09 09:16:50;;;;;;;11.85;3.03;;;0.80;95.40;;;;;;5034348;28;20033;-73
2022/01/09 09:19:16;;;;;;;7.47;2.90;;;0.80;94.70;;;;;;5030217;28;20072;-72
2022/01/09 09:21:43;;;;;;;19.50;5.28;;;0.80;95.20;;;;;;5034813;28;20058;-72
2022/01/09 09:24:09;;;;;;;17.95;5.88;;;0.70;95.70;;;;;;5030126;28;20045;-72
2022/01/09 09:26:35;;;;;;;13.02;3.25;;;0.70;94.70;;;;;;5030616;28;20056;-72
2022/01/09 09:29:00;;;;;;;12.07;4.25;;;0.70;95.10;;;;;;5024148;28;20116;-72
2022/01/09 09:31:26;;;;;;;10.40;3.33;;;0.70;94.00;;;;;;5029968;28;20498;-73
2022/01/09 09:33:52;;;;;;;9.13;3.08;;;0.70;93.50;;;;;;5011264;28;20036;-73
2022/01/09 09:36:17;;;;;;;11.48;5.38;;;0.60;92.20;;;;;;5031864;28;20040;-73
2022/01/09 09:38:43;;;;;;;11.43;3.38;;;0.60;91.60;;;;;;5029972;28;20104;-72
2022/01/09 09:41:09;;;;;;;15.38;5.90;;;0.60;90.40;;;;;;5028425;28;20410;-72
2022/01/09 09:43:34;;;;;;;15.68;5.97;;;0.60;89.60;;;;;;5029172;28;20029;-73
2022/01/09 09:46:00;;;;;;;8.68;6.15;;;0.60;89.40;;;;;;5029115;28;20038;-72
2022/01/09 09:48:26;;;;;;;11.27;3.25;;;0.70;89.30;;;;;;5027081;28;20070;-72
2022/01/09 09:50:53;;;;;;;12.85;4.53;;;0.80;89.00;;;;;;5027465;28;20418;-72
2022/01/09 09:53:19;;;;;;;15.30;5.38;;;0.90;89.00;;;;;;5029940;28;20037;-72
2022/01/09 09:55:46;;;;;;;11.30;3.40;;;1.00;89.00;;;;;;5028685;28;20827;-72
2022/01/09 09:58:12;;;;;;;13.00;2.85;;;1.00;89.30;;;;;;5029045;28;20025;-72
2022/01/09 10:00:39;;;;;;;12.50;3.25;;;1.20;91.10;;;;;;5028688;28;20028;-72
2022/01/09 10:03:04;;;;;;;10.13;3.90;;;1.40;90.40;;;;;;5026644;28;20022;-72
2022/01/09 10:05:38;;;;;;;9.98;2.28;;;1.70;91.10;;;;;;5029243;28;20025;-72
2022/01/09 10:08:06;;;;;;;16.30;2.75;;;1.80;98.00;;;;;;5029580;28;20079;-72
2022/01/09 10:10:33;;;;;;;13.23;2.90;;;1.70;98.00;;;;;;5029444;28;20033;-72
2022/01/09 10:13:17;;;;;;;11.35;3.30;;;1.80;98.00;;;;;;5029054;28;20406;-71
2022/01/09 10:15:57;;;;;;;11.13;2.80;;;1.90;98.00;;;;;;5029345;28;20421;-71
2022/01/09 10:18:43;;;;;;;8.68;2.15;;;1.90;98.00;;;;;;5026524;28;20327;-72
2022/01/09 10:21:23;;;;;;;8.52;2.80;;;2.00;98.00;;;;;;5026661;28;20042;-71
2022/01/09 10:24:13;;;;;;;7.55;2.65;;;2.10;98.00;;;;;;5008938;28;20048;-71
2022/01/09 10:26:47;;;;;;;11.65;2.55;;;2.20;98.00;;;;;;5027861;28;20039;-72
2022/01/09 10:29:12;;;;;;;9.98;2.58;;;2.10;98.00;;;;;;5027073;28;20037;-72
2022/01/09 10:31:46;;;;;;;11.40;2.80;;;2.10;98.00;;;;;;5028703;28;20151;-72
2022/01/09 10:34:18;;;;;;;13.85;3.00;;;2.00;98.00;;;;;;5009708;28;20049;-72
2022/01/09 10:36:51;;;;;;;10.75;2.22;;;1.90;98.00;;;;;;5028340;28;20033;-73
2022/01/09 10:39:27;;;;;;;10.52;2.97;;;1.70;98.00;;;;;;5027831;28;20025;-72
2022/01/09 10:41:58;;;;;;;8.80;2.03;;;2.30;98.00;;;;;;5029236;28;20059;-73
2022/01/09 10:44:33;;;;;;;10.88;2.65;;;2.40;98.00;;;;;;5011591;28;20033;-72
2022/01/09 10:47:03;;;;;;;11.88;2.53;;;2.20;98.00;;;;;;5026347;28;20044;-72
2022/01/09 10:49:47;;;;;;;11.15;2.95;;;2.00;98.00;;;;;;5026731;28;20111;-72
2022/01/09 10:52:18;;;;;;;7.83;2.27;;;2.20;98.00;;;;;;5011622;28;20033;-73
2022/01/09 10:54:47;;;;;;;8.07;2.58;;;2.50;98.00;;;;;;5030099;28;20288;-72
2022/01/09 10:57:25;;;;;;;6.55;2.20;;;2.70;98.00;;;;;;5029611;28;20029;-72
2022/01/09 11:00:15;;;;;;;11.48;2.00;;;3.30;98.00;;;;;;5031674;28;20029;-72
2022/01/09 11:02:44;;;;;;;6.85;1.90;;;3.40;98.00;;;;;;5030302;28;20036;-73
2022/01/09 11:05:09;;;;;;;10.27;2.70;;;3.60;98.00;;;;;;5025260;28;20029;-73
2022/01/09 11:07:36;;;;;;;10.05;2.70;;;3.80;98.00;;;;;;5030789;28;20026;-73
2022/01/09 11:10:03;;;;;;;10.70;2.47;;;4.60;98.00;;;;;;5030920;28;20061;-72
2022/01/09 11:12:36;;;;;;;10.15;2.85;;;4.10;95.90;;;;;;5034338;28;20036;-72
2022/01/09 11:15:03;;;;;;;10.63;2.58;;;3.70;98.00;;;;;;5035403;28;20029;-73
2022/01/09 11:18:02;;;;;;;;;;;;;;;;;;;;;
2022/01/09 11:20:31;;;;;;;7.10;2.53;;;3.00;98.00;;;;;;5027595;28;20030;-72
2022/01/09 11:22:59;;;;;;;7.70;2.42;;;3.50;98.00;;;;;;5017817;28;20308;-73
2022/01/09 11:25:42;;;;;;;12.35;3.15;;;3.70;98.00;;;;;;5033709;28;20334;-72
2022/01/09 11:28:13;;;;;;;13.70;2.83;;;3.30;98.00;;;;;;5035262;28;20096;-73
2022/01/09 11:31:16;;;;;;;12.82;2.67;;;3.20;98.00;;;;;;5034714;28;20021;-74
2022/01/09 11:34:00;;;;;;;10.75;3.75;;;3.10;98.00;;;;;;5002998;28;20033;-74
2022/01/09 11:36:35;;;;;;;9.13;3.17;;;3.10;98.00;;;;;;5036774;28;20052;-74
2022/01/09 11:39:11;;;;;;;13.73;5.38;;;3.00;98.00;;;;;;5039023;28;20061;-72
2022/01/09 11:41:39;;;;;;;9.10;3.00;;;2.80;98.00;;;;;;5038305;28;20025;-72
2022/01/09 11:44:08;;;;;;;11.38;4.28;;;2.80;98.00;;;;;;5038736;28;20026;-72
2022/01/09 11:47:01;;;;;;;8.35;3.30;;;2.80;98.00;;;;;;5037024;28;20022;-72
2022/01/09 11:49:28;;;;;;;10.75;3.03;;;2.90;98.00;;;;;;5033794;28;20030;-72
2022/01/09 11:51:56;;;;;;;12.63;3.10;;;2.80;98.00;;;;;;5039237;28;20030;-72
2022/01/09 11:54:23;;;;;;;9.20;2.90;;;2.90;98.00;;;;;;5037847;28;20033;-72
2022/01/09 11:56:58;;;;;;;8.95;2.55;;;3.00;98.00;;;;;;5036042;28;20307;-72
2022/01/09 11:59:37;;;;;;;10.10;2.97;;;3.10;98.00;;;;;;5038617;28;20057;-72
2022/01/09 12:02:03;;;;;;;8.52;2.70;;;3.10;98.00;;;;;;5018818;28;20032;-72
2022/01/09 12:04:34;;;;;;;8.25;1.90;;;3.40;98.00;;;;;;5037114;28;20033;-73
2022/01/09 12:07:07;;;;;;;8.68;2.17;;;3.80;98.00;;;;;;5036995;28;20025;-72
2022/01/09 12:09:33;;;;;;;7.72;2.20;;;4.00;98.00;;;;;;5035939;28;20077;-73
2022/01/09 12:12:29;;;;;;;6.82;2.30;;;3.70;98.00;;;;;;5024549;28;20037;-73
2022/01/09 12:15:01;;;;;;;7.63;2.88;;;3.60;98.00;;;;;;5036563;28;20033;-72
2022/01/09 12:17:45;;;;;;;8.23;2.30;;;3.60;98.00;;;;;;5032059;28;20018;-73
2022/01/09 12:20:14;;;;;;;9.25;2.28;;;3.60;98.00;;;;;;5037947;28;20049;-73
2022/01/09 12:22:43;;;;;;;9.05;2.28;;;3.60;98.00;;;;;;5019618;28;20207;-73
2022/01/09 12:25:30;;;;;;;5.88;2.00;;;3.60;98.00;;;;;;5035933;28;20048;-73
2022/01/09 12:28:08;;;;;;;7.00;2.67;;;3.60;98.00;;;;;;5038326;28;20045;-73
2022/01/09 12:30:41;;;;;;;8.73;1.77;;;3.70;98.00;;;;;;5037227;28;20433;-73
2022/01/09 12:33:09;;;;;;;6.18;1.80;;;3.90;98.00;;;;;;5036822;28;20083;-74
2022/01/09 12:35:38;;;;;;;7.53;1.80;;;4.00;98.00;;;;;;5037068;28;20081;-75
2022/01/09 12:38:04;;;;;;;10.93;1.85;;;4.40;97.60;;;;;;5035879;28;20628;-72
2022/01/09 12:40:32;;;;;;;6.32;1.67;;;4.40;96.00;;;;;;5035884;28;20025;-74
2022/01/09 12:43:00;;;;;;;7.43;1.80;;;4.00;96.10;;;;;;5034048;28;20030;-74
2022/01/09 12:45:28;;;;;;;6.07;1.70;;;4.40;96.70;;;;;;5031188;28;20033;-74
2022/01/09 12:47:55;;;;;;;6.60;2.05;;;4.60;95.80;;;;;;5034718;28;20040;-73
2022/01/09 12:50:29;;;;;;;4.22;1.80;;;4.80;94.80;;;;;;5036728;28;20030;-74
2022/01/09 12:53:16;;;;;;;6.75;1.77;;;5.00;93.90;;;;;;5035315;28;20033;-74
2022/01/09 12:56:05;;;;;;;6.07;1.80;;;5.40;93.20;;;;;;5037267;28;20307;-74
2022/01/09 12:58:59;;;;;;;6.28;1.90;;;5.70;92.80;;;;;;5040884;28;20029;-73
2022/01/09 13:01:31;;;;;;;4.75;1.80;;;5.80;92.60;;;;;;5033457;28;20140;-74